sensor_id;sensor_type;location;lat;lon;timestamp;temperature;humidity
1704;DHT22;849;48.780;9.216;2022-11-23T00:00:33;8.60;99.90
1704;DHT22;849;48.780;9.216;2022-11-23T00:02:59;8.60;99.90
1704;DHT22;849;48.780;9.216;2022-11-23T00:05:27;8.50;99.90
1704;DHT22;849;48.780;9.216;2022-11-23T00:07:53;8.50;99.90
1704;DHT22;849;48.780;9.216;2022-11-23T00:10:19;8.40;99.90
1704;DHT22;849;48.780;9.216;2022-11-23T00:12:45;8.50;99.90
1704;DHT22;849;48.780;9.216;2022-11-23T00:15:12;8.50;99.90
1704;DHT22;849;48.780;9.216;2022-11-23T00:17:39;8.30;99.90
1704;DHT22;849;48.780;9.216;2022-11-23T00:20:06;8.40;99.90
1704;DHT22;849;48.780;9.216;2022-11-23T00:22:32;8.40;99.90
1704;DHT22;849;48.780;9.216;2022-11-23T00:24:58;8.30;99.90
1704;DHT22;849;48.780;9.216;2022-11-23T00:27:23;8.40;99.90
1704;DHT22;849;48.780;9.216;2022-11-23T00:29:49;8.50;99.90
1704;DHT22;849;48.780;9.216;2022-11-23T00:32:15;8.30;99.90
1704;DHT22;849;48.780;9.216;2022-11-23T00:34:41;8.00;99.90
1704;DHT22;849;48.780;9.216;2022-11-23T00:37:06;7.90;99.90
1704;DHT22;849;48.780;9.216;2022-11-23T00:39:32;7.70;99.90
1704;DHT22;849;48.780;9.216;2022-11-23T00:41:58;7.80;99.90
1704;DHT22;849;48.780;9.216;2022-11-23T00:44:23;7.90;99.90
1704;DHT22;849;48.780;9.216;2022-11-23T00:46:49;8.10;99.90
1704;DHT22;849;48.780;9.216;2022-11-23T00:49:15;8.30;99.90
1704;DHT22;849;48.780;9.216;2022-11-23T00:51:40;8.30;99.90
1704;DHT22;849;48.780;9.216;2022-11-23T00:54:06;8.30;99.90
1704;DHT22;849;48.780;9.216;2022-11-23T00:56:33;8.30;99.90
1704;DHT22;849;48.780;9.216;2022-11-23T00:59:01;8.20;99.90
1704;DHT22;849;48.780;9.216;2022-11-23T01:01:29;8.10;99.90
1704;DHT22;849;48.780;9.216;2022-11-23T01:03:59;8.30;99.90
1704;DHT22;849;48.780;9.216;2022-11-23T01:06:27;8.00;99.90
1704;DHT22;849;48.780;9.216;2022-11-23T01:08:58;7.90;99.90
1704;DHT22;849;48.780;9.216;2022-11-23T01:11:26;7.90;99.90
1704;DHT22;849;48.780;9.216;2022-11-23T01:13:53;7.70;99.90
1704;DHT22;849;48.780;9.216;2022-11-23T01:16:21;7.80;99.90
1704;DHT22;849;48.780;9.216;2022-11-23T01:18:54;7.80;99.90
1704;DHT22;849;48.780;9.216;2022-11-23T01:21:20;7.90;99.90
1704;DHT22;849;48.780;9.216;2022-11-23T01:23:46;7.90;99.90
1704;DHT22;849;48.780;9.216;2022-11-23T01:26:11;7.80;99.90
1704;DHT22;849;48.780;9.216;2022-11-23T01:28:38;7.90;99.90
1704;DHT22;849;48.780;9.216;2022-11-23T01:31:19;8.10;99.90
1704;DHT22;849;48.780;9.216;2022-11-23T01:33:46;8.20;99.90
1704;DHT22;849;48.780;9.216;2022-11-23T01:36:17;8.20;99.90
1704;DHT22;849;48.780;9.216;2022-11-23T01:38:44;8.30;99.90
1704;DHT22;849;48.780;9.216;2022-11-23T01:41:13;8.40;99.90
1704;DHT22;849;48.780;9.216;2022-11-23T01:43:39;8.60;99.90
1704;DHT22;849;48.780;9.216;2022-11-23T01:46:06;8.70;99.90
1704;DHT22;849;48.780;9.216;2022-11-23T01:48:38;8.80;99.90
1704;DHT22;849;48.780;9.216;2022-11-23T01:51:13;8.80;99.90
1704;DHT22;849;48.780;9.216;2022-11-23T01:53:41;8.70;99.90
1704;DHT22;849;48.780;9.216;2022-11-23T01:56:09;8.70;99.90
1704;DHT22;849;48.780;9.216;2022-11-23T01:58:38;8.60;99.90
1704;DHT22;849;48.780;9.216;2022-11-23T02:01:06;8.40;99.90
1704;DHT22;849;48.780;9.216;2022-11-23T02:03:33;8.30;99.90
1704;DHT22;849;48.780;9.216;2022-11-23T02:06:03;8.20;99.90
1704;DHT22;849;48.780;9.216;2022-11-23T02:08:30;8.10;99.90
1704;DHT22;849;48.780;9.216;2022-11-23T02:10:56;8.00;99.90
1704;DHT22;849;48.780;9.216;2022-11-23T02:13:23;8.00;99.90
1704;DHT22;849;48.780;9.216;2022-11-23T02:15:50;8.10;99.90
1704;DHT22;849;48.780;9.216;2022-11-23T02:18:21;7.90;99.90
1704;DHT22;849;48.780;9.216;2022-11-23T02:20:48;7.80;99.90
1704;DHT22;849;48.780;9.216;2022-11-23T02:23:36;7.90;99.90
1704;DHT22;849;48.780;9.216;2022-11-23T02:26:22;7.80;99.90
1704;DHT22;849;48.780;9.216;2022-11-23T02:29:10;7.80;99.90
1704;DHT22;849;48.780;9.216;2022-11-23T02:31:38;8.00;99.90
1704;DHT22;849;48.780;9.216;2022-11-23T02:34:04;8.00;99.90
1704;DHT22;849;48.780;9.216;2022-11-23T02:36:37;8.10;99.90
1704;DHT22;849;48.780;9.216;2022-11-23T02:39:10;8.20;99.90
1704;DHT22;849;48.780;9.216;2022-11-23T02:41:45;8.30;99.90
1704;DHT22;849;48.780;9.216;2022-11-23T02:44:24;8.30;99.90
1704;DHT22;849;48.780;9.216;2022-11-23T02:46:52;8.20;99.90
1704;DHT22;849;48.780;9.216;2022-11-23T02:49:18;8.10;99.90
1704;DHT22;849;48.780;9.216;2022-11-23T02:51:44;8.10;99.90
1704;DHT22;849;48.780;9.216;2022-11-23T02:54:09;8.10;99.90
1704;DHT22;849;48.780;9.216;2022-11-23T02:56:35;8.10;99.90
1704;DHT22;849;48.780;9.216;2022-11-23T02:59:01;8.20;99.90
1704;DHT22;849;48.780;9.216;2022-11-23T03:01:27;8.00;99.90
1704;DHT22;849;48.780;9.216;2022-11-23T03:03:53;7.80;99.90
1704;DHT22;849;48.780;9.216;2022-11-23T03:06:19;7.70;99.90
1704;DHT22;849;48.780;9.216;2022-11-23T03:08:44;7.70;99.90
1704;DHT22;849;48.780;9.216;2022-11-23T03:11:10;7.70;99.90
1704;DHT22;849;48.780;9.216;2022-11-23T03:13:36;7.50;99.90
1704;DHT22;849;48.780;9.216;2022-11-23T03:16:01;7.60;99.90
1704;DHT22;849;48.780;9.216;2022-11-23T03:18:27;7.50;99.90
1704;DHT22;849;48.780;9.216;2022-11-23T03:20:53;7.60;99.90
1704;DHT22;849;48.780;9.216;2022-11-23T03:23:18;7.60;99.90
1704;DHT22;849;48.780;9.216;2022-11-23T03:25:44;7.70;99.90
1704;DHT22;849;48.780;9.216;2022-11-23T03:28:10;7.70;99.90
1704;DHT22;849;48.780;9.216;2022-11-23T03:30:36;7.60;99.90
1704;DHT22;849;48.780;9.216;2022-11-23T03:33:02;7.50;99.90
1704;DHT22;849;48.780;9.216;2022-11-23T03:35:28;7.50;99.90
1704;DHT22;849;48.780;9.216;2022-11-23T03:37:53;7.30;99.90
1704;DHT22;849;48.780;9.216;2022-11-23T03:40:19;7.10;99.90
1704;DHT22;849;48.780;9.216;2022-11-23T03:42:45;7.20;99.90
1704;DHT22;849;48.780;9.216;2022-11-23T03:45:10;7.10;99.90
1704;DHT22;849;48.780;9.216;2022-11-23T03:47:36;7.20;99.90
1704;DHT22;849;48.780;9.216;2022-11-23T03:50:02;7.30;99.90
1704;DHT22;849;48.780;9.216;2022-11-23T03:52:28;7.40;99.90
1704;DHT22;849;48.780;9.216;2022-11-23T03:54:53;7.30;99.90
1704;DHT22;849;48.780;9.216;2022-11-23T03:57:19;7.40;99.90
1704;DHT22;849;48.780;9.216;2022-11-23T03:59:44;7.40;99.90
1704;DHT22;849;48.780;9.216;2022-11-23T04:02:10;7.40;99.90
1704;DHT22;849;48.780;9.216;2022-11-23T04:04:36;7.40;99.90
1704;DHT22;849;48.780;9.216;2022-11-23T04:07:02;7.40;99.90
1704;DHT22;849;48.780;9.216;2022-11-23T04:09:28;7.50;99.90
1704;DHT22;849;48.780;9.216;2022-11-23T04:11:54;7.50;99.90
1704;DHT22;849;48.780;9.216;2022-11-23T04:14:19;7.60;99.90
1704;DHT22;849;48.780;9.216;2022-11-23T04:16:45;7.60;99.90
1704;DHT22;849;48.780;9.216;2022-11-23T04:19:10;7.70;99.90
1704;DHT22;849;48.780;9.216;2022-11-23T04:21:36;7.80;99.90
1704;DHT22;849;48.780;9.216;2022-11-23T04:24:02;7.80;99.90
1704;DHT22;849;48.780;9.216;2022-11-23T04:26:28;7.70;99.90
1704;DHT22;849;48.780;9.216;2022-11-23T04:28:53;7.80;99.90
1704;DHT22;849;48.780;9.216;2022-11-23T04:31:19;7.90;99.90
1704;DHT22;849;48.780;9.216;2022-11-23T04:33:45;7.80;99.90
1704;DHT22;849;48.780;9.216;2022-11-23T04:36:10;7.60;99.90
1704;DHT22;849;48.780;9.216;2022-11-23T04:38:36;7.70;99.90
1704;DHT22;849;48.780;9.216;2022-11-23T04:41:02;7.90;99.90
1704;DHT22;849;48.780;9.216;2022-11-23T04:43:27;8.00;99.90
1704;DHT22;849;48.780;9.216;2022-11-23T04:45:53;8.10;99.90
1704;DHT22;849;48.780;9.216;2022-11-23T04:48:18;8.10;99.90
1704;DHT22;849;48.780;9.216;2022-11-23T04:50:44;8.20;99.90
1704;DHT22;849;48.780;9.216;2022-11-23T04:53:10;8.20;99.90
1704;DHT22;849;48.780;9.216;2022-11-23T04:55:35;8.00;99.90
1704;DHT22;849;48.780;9.216;2022-11-23T04:58:01;8.00;99.90
1704;DHT22;849;48.780;9.216;2022-11-23T05:00:27;7.80;99.90
1704;DHT22;849;48.780;9.216;2022-11-23T05:02:52;7.80;99.90
1704;DHT22;849;48.780;9.216;2022-11-23T05:05:18;7.80;99.90
1704;DHT22;849;48.780;9.216;2022-11-23T05:07:44;7.40;99.90
1704;DHT22;849;48.780;9.216;2022-11-23T05:10:09;7.40;99.90
1704;DHT22;849;48.780;9.216;2022-11-23T05:12:35;7.40;99.90
1704;DHT22;849;48.780;9.216;2022-11-23T05:15:02;7.50;99.90
1704;DHT22;849;48.780;9.216;2022-11-23T05:17:27;7.50;99.90
1704;DHT22;849;48.780;9.216;2022-11-23T05:19:53;7.30;99.90
1704;DHT22;849;48.780;9.216;2022-11-23T05:22:20;7.20;99.90
1704;DHT22;849;48.780;9.216;2022-11-23T05:24:46;7.30;99.90
1704;DHT22;849;48.780;9.216;2022-11-23T05:27:12;7.30;99.90
1704;DHT22;849;48.780;9.216;2022-11-23T05:29:37;7.30;99.90
1704;DHT22;849;48.780;9.216;2022-11-23T05:32:03;7.40;99.90
1704;DHT22;849;48.780;9.216;2022-11-23T05:34:29;7.50;99.90
1704;DHT22;849;48.780;9.216;2022-11-23T05:36:55;7.50;99.90
1704;DHT22;849;48.780;9.216;2022-11-23T05:39:20;7.40;99.90
1704;DHT22;849;48.780;9.216;2022-11-23T05:41:47;7.50;99.90
1704;DHT22;849;48.780;9.216;2022-11-23T05:44:12;7.40;99.90
1704;DHT22;849;48.780;9.216;2022-11-23T05:46:38;7.40;99.90
1704;DHT22;849;48.780;9.216;2022-11-23T05:49:04;7.40;99.90
1704;DHT22;849;48.780;9.216;2022-11-23T05:51:29;7.30;99.90
1704;DHT22;849;48.780;9.216;2022-11-23T05:53:57;7.40;99.90
1704;DHT22;849;48.780;9.216;2022-11-23T05:56:23;7.50;99.90
1704;DHT22;849;48.780;9.216;2022-11-23T05:58:50;7.70;99.90
1704;DHT22;849;48.780;9.216;2022-11-23T06:01:18;7.50;99.90
1704;DHT22;849;48.780;9.216;2022-11-23T06:03:43;7.60;99.90
1704;DHT22;849;48.780;9.216;2022-11-23T06:06:09;7.60;99.90
1704;DHT22;849;48.780;9.216;2022-11-23T06:08:35;7.70;99.90
1704;DHT22;849;48.780;9.216;2022-11-23T06:11:01;7.70;99.90
1704;DHT22;849;48.780;9.216;2022-11-23T06:13:27;7.60;99.90
1704;DHT22;849;48.780;9.216;2022-11-23T06:15:52;7.70;99.90
1704;DHT22;849;48.780;9.216;2022-11-23T06:18:18;7.70;99.90
1704;DHT22;849;48.780;9.216;2022-11-23T06:20:43;7.80;99.90
1704;DHT22;849;48.780;9.216;2022-11-23T06:23:09;7.80;99.90
1704;DHT22;849;48.780;9.216;2022-11-23T06:25:35;7.80;99.90
1704;DHT22;849;48.780;9.216;2022-11-23T06:28:03;7.90;99.90
1704;DHT22;849;48.780;9.216;2022-11-23T06:30:28;7.80;99.90
1704;DHT22;849;48.780;9.216;2022-11-23T06:32:55;7.80;99.90
1704;DHT22;849;48.780;9.216;2022-11-23T06:35:22;7.80;99.90
1704;DHT22;849;48.780;9.216;2022-11-23T06:37:49;7.70;99.90
1704;DHT22;849;48.780;9.216;2022-11-23T06:40:15;7.80;99.90
1704;DHT22;849;48.780;9.216;2022-11-23T06:42:41;7.70;99.90
1704;DHT22;849;48.780;9.216;2022-11-23T06:45:07;7.60;99.90
1704;DHT22;849;48.780;9.216;2022-11-23T06:47:33;7.60;99.90
1704;DHT22;849;48.780;9.216;2022-11-23T06:49:59;7.70;99.90
1704;DHT22;849;48.780;9.216;2022-11-23T06:52:24;7.60;99.90
1704;DHT22;849;48.780;9.216;2022-11-23T06:54:50;7.50;99.90
1704;DHT22;849;48.780;9.216;2022-11-23T06:57:16;7.50;99.90
1704;DHT22;849;48.780;9.216;2022-11-23T06:59:41;7.50;99.90
1704;DHT22;849;48.780;9.216;2022-11-23T07:02:08;7.40;99.90
1704;DHT22;849;48.780;9.216;2022-11-23T07:04:34;7.20;99.90
1704;DHT22;849;48.780;9.216;2022-11-23T07:06:59;7.10;99.90
1704;DHT22;849;48.780;9.216;2022-11-23T07:09:25;7.00;99.90
1704;DHT22;849;48.780;9.216;2022-11-23T07:11:51;7.10;99.90
1704;DHT22;849;48.780;9.216;2022-11-23T07:14:16;6.90;99.90
1704;DHT22;849;48.780;9.216;2022-11-23T07:16:42;6.80;99.90
1704;DHT22;849;48.780;9.216;2022-11-23T07:19:08;6.80;99.90
1704;DHT22;849;48.780;9.216;2022-11-23T07:21:33;6.90;99.90
1704;DHT22;849;48.780;9.216;2022-11-23T07:23:59;7.00;99.90
1704;DHT22;849;48.780;9.216;2022-11-23T07:26:24;7.10;99.90
1704;DHT22;849;48.780;9.216;2022-11-23T07:28:50;7.20;99.90
1704;DHT22;849;48.780;9.216;2022-11-23T07:31:16;7.20;99.90
1704;DHT22;849;48.780;9.216;2022-11-23T07:33:45;7.20;99.90
1704;DHT22;849;48.780;9.216;2022-11-23T07:36:12;7.10;99.90
1704;DHT22;849;48.780;9.216;2022-11-23T07:38:38;7.00;99.90
1704;DHT22;849;48.780;9.216;2022-11-23T07:41:03;7.00;99.90
1704;DHT22;849;48.780;9.216;2022-11-23T07:43:29;7.00;99.90
1704;DHT22;849;48.780;9.216;2022-11-23T07:45:55;7.10;99.90
1704;DHT22;849;48.780;9.216;2022-11-23T07:48:22;7.10;99.90
1704;DHT22;849;48.780;9.216;2022-11-23T07:50:50;7.20;99.90
1704;DHT22;849;48.780;9.216;2022-11-23T07:53:16;7.20;99.90
1704;DHT22;849;48.780;9.216;2022-11-23T07:55:41;7.20;99.90
1704;DHT22;849;48.780;9.216;2022-11-23T07:58:08;7.20;99.90
1704;DHT22;849;48.780;9.216;2022-11-23T08:00:34;7.20;99.90
1704;DHT22;849;48.780;9.216;2022-11-23T08:02:59;7.20;99.90
1704;DHT22;849;48.780;9.216;2022-11-23T08:05:25;7.30;99.90
1704;DHT22;849;48.780;9.216;2022-11-23T08:07:56;7.30;99.90
1704;DHT22;849;48.780;9.216;2022-11-23T08:10:22;7.30;99.90
1704;DHT22;849;48.780;9.216;2022-11-23T08:12:48;7.20;99.90
1704;DHT22;849;48.780;9.216;2022-11-23T08:15:14;7.20;99.90
1704;DHT22;849;48.780;9.216;2022-11-23T08:17:39;7.20;99.90
1704;DHT22;849;48.780;9.216;2022-11-23T08:20:05;7.20;99.90
1704;DHT22;849;48.780;9.216;2022-11-23T08:22:31;7.30;99.90
1704;DHT22;849;48.780;9.216;2022-11-23T08:24:57;7.30;99.90
1704;DHT22;849;48.780;9.216;2022-11-23T08:27:22;7.30;99.90
1704;DHT22;849;48.780;9.216;2022-11-23T08:29:48;7.30;99.90
1704;DHT22;849;48.780;9.216;2022-11-23T08:32:14;7.40;99.90
1704;DHT22;849;48.780;9.216;2022-11-23T08:34:41;7.40;99.90
1704;DHT22;849;48.780;9.216;2022-11-23T08:37:07;7.40;99.90
1704;DHT22;849;48.780;9.216;2022-11-23T08:39:33;7.40;99.90
1704;DHT22;849;48.780;9.216;2022-11-23T08:41:59;7.40;99.90
1704;DHT22;849;48.780;9.216;2022-11-23T08:44:24;7.40;99.90
1704;DHT22;849;48.780;9.216;2022-11-23T08:46:50;7.50;99.90
1704;DHT22;849;48.780;9.216;2022-11-23T08:49:16;7.40;99.90
1704;DHT22;849;48.780;9.216;2022-11-23T08:51:41;7.40;99.90
1704;DHT22;849;48.780;9.216;2022-11-23T08:54:07;7.50;99.90
1704;DHT22;849;48.780;9.216;2022-11-23T08:56:33;7.50;99.90
1704;DHT22;849;48.780;9.216;2022-11-23T08:58:58;7.50;99.90
1704;DHT22;849;48.780;9.216;2022-11-23T09:01:24;7.50;99.90
1704;DHT22;849;48.780;9.216;2022-11-23T09:03:50;7.50;99.90
1704;DHT22;849;48.780;9.216;2022-11-23T09:06:16;7.60;99.90
1704;DHT22;849;48.780;9.216;2022-11-23T09:08:41;7.70;99.90
1704;DHT22;849;48.780;9.216;2022-11-23T09:11:10;7.70;99.90
1704;DHT22;849;48.780;9.216;2022-11-23T09:13:37;7.70;99.90
1704;DHT22;849;48.780;9.216;2022-11-23T09:16:04;7.80;99.90
1704;DHT22;849;48.780;9.216;2022-11-23T09:18:30;7.80;99.90
1704;DHT22;849;48.780;9.216;2022-11-23T09:20:56;7.80;99.90
1704;DHT22;849;48.780;9.216;2022-11-23T09:23:23;7.70;99.90
1704;DHT22;849;48.780;9.216;2022-11-23T09:25:48;7.80;99.90
1704;DHT22;849;48.780;9.216;2022-11-23T09:28:17;7.90;99.90
1704;DHT22;849;48.780;9.216;2022-11-23T09:30:47;7.80;99.90
1704;DHT22;849;48.780;9.216;2022-11-23T09:33:13;7.90;99.90
1704;DHT22;849;48.780;9.216;2022-11-23T09:35:39;7.90;99.90
1704;DHT22;849;48.780;9.216;2022-11-23T09:38:05;7.90;99.90
1704;DHT22;849;48.780;9.216;2022-11-23T09:40:33;8.00;99.90
1704;DHT22;849;48.780;9.216;2022-11-23T09:43:07;8.10;99.90
1704;DHT22;849;48.780;9.216;2022-11-23T09:45:46;8.20;99.90
1704;DHT22;849;48.780;9.216;2022-11-23T09:53:52;8.20;99.90
1704;DHT22;849;48.780;9.216;2022-11-23T09:56:22;8.30;99.90
1704;DHT22;849;48.780;9.216;2022-11-23T09:58:55;8.20;99.90
1704;DHT22;849;48.780;9.216;2022-11-23T10:01:21;8.30;99.90
1704;DHT22;849;48.780;9.216;2022-11-23T10:03:47;8.30;99.90
1704;DHT22;849;48.780;9.216;2022-11-23T10:06:24;8.30;99.90
1704;DHT22;849;48.780;9.216;2022-11-23T10:15:00;8.30;99.90
1704;DHT22;849;48.780;9.216;2022-11-23T10:23:38;8.30;99.90
1704;DHT22;849;48.780;9.216;2022-11-23T10:26:15;8.30;99.90
1704;DHT22;849;48.780;9.216;2022-11-23T10:28:41;8.20;99.90
1704;DHT22;849;48.780;9.216;2022-11-23T10:31:14;8.40;99.90
1704;DHT22;849;48.780;9.216;2022-11-23T10:34:12;8.60;99.90
1704;DHT22;849;48.780;9.216;2022-11-23T10:36:39;8.70;99.90
1704;DHT22;849;48.780;9.216;2022-11-23T10:39:25;8.80;99.90
1704;DHT22;849;48.780;9.216;2022-11-23T10:41:53;8.90;99.90
1704;DHT22;849;48.780;9.216;2022-11-23T10:46:50;8.90;99.90
1704;DHT22;849;48.780;9.216;2022-11-23T10:49:32;8.90;99.90
1704;DHT22;849;48.780;9.216;2022-11-23T10:52:03;8.90;99.90
1704;DHT22;849;48.780;9.216;2022-11-23T10:54:39;8.90;99.90
1704;DHT22;849;48.780;9.216;2022-11-23T10:57:31;9.00;99.90
1704;DHT22;849;48.780;9.216;2022-11-23T11:07:40;9.20;99.90
1704;DHT22;849;48.780;9.216;2022-11-23T11:10:08;9.20;99.90
1704;DHT22;849;48.780;9.216;2022-11-23T11:12:51;9.30;99.90
1704;DHT22;849;48.780;9.216;2022-11-23T11:15:17;9.30;99.90
1704;DHT22;849;48.780;9.216;2022-11-23T11:17:43;9.30;99.90
1704;DHT22;849;48.780;9.216;2022-11-23T11:20:33;9.20;99.90
1704;DHT22;849;48.780;9.216;2022-11-23T11:23:01;9.30;99.90
1704;DHT22;849;48.780;9.216;2022-11-23T11:25:35;9.20;99.90
1704;DHT22;849;48.780;9.216;2022-11-23T11:34:18;9.40;99.90
1704;DHT22;849;48.780;9.216;2022-11-23T11:39:47;9.50;99.90
1704;DHT22;849;48.780;9.216;2022-11-23T11:42:34;9.60;99.90
1704;DHT22;849;48.780;9.216;2022-11-23T11:45:04;9.50;99.90
1704;DHT22;849;48.780;9.216;2022-11-23T11:47:36;9.60;99.90
1704;DHT22;849;48.780;9.216;2022-11-23T11:52:47;9.60;99.90
1704;DHT22;849;48.780;9.216;2022-11-23T11:58:09;9.50;99.90
1704;DHT22;849;48.780;9.216;2022-11-23T12:00:37;9.60;99.90
1704;DHT22;849;48.780;9.216;2022-11-23T12:03:24;9.80;99.90
1704;DHT22;849;48.780;9.216;2022-11-23T12:05:53;9.60;99.90
1704;DHT22;849;48.780;9.216;2022-11-23T12:08:54;9.80;99.90
1704;DHT22;849;48.780;9.216;2022-11-23T12:11:21;10.00;99.90
1704;DHT22;849;48.780;9.216;2022-11-23T12:13:47;10.10;99.90
1704;DHT22;849;48.780;9.216;2022-11-23T12:30:21;10.00;99.90
1704;DHT22;849;48.780;9.216;2022-11-23T12:35:53;9.80;99.90
1704;DHT22;849;48.780;9.216;2022-11-23T12:49:54;10.00;99.90
1704;DHT22;849;48.780;9.216;2022-11-23T12:55:27;10.00;99.90
1704;DHT22;849;48.780;9.216;2022-11-23T12:58:17;10.10;99.90
1704;DHT22;849;48.780;9.216;2022-11-23T13:00:54;10.10;99.90
1704;DHT22;849;48.780;9.216;2022-11-23T13:17:23;10.00;99.90
1704;DHT22;849;48.780;9.216;2022-11-23T13:22:38;9.90;99.90
1704;DHT22;849;48.780;9.216;2022-11-23T13:25:18;9.90;99.90
1704;DHT22;849;48.780;9.216;2022-11-23T13:30:28;9.90;99.90
1704;DHT22;849;48.780;9.216;2022-11-23T13:33:00;10.00;99.90
1704;DHT22;849;48.780;9.216;2022-11-23T13:40:34;10.20;99.90
1704;DHT22;849;48.780;9.216;2022-11-23T13:43:04;10.00;99.90
1704;DHT22;849;48.780;9.216;2022-11-23T13:45:34;10.10;99.90
1704;DHT22;849;48.780;9.216;2022-11-23T13:48:19;10.20;99.90
1704;DHT22;849;48.780;9.216;2022-11-23T13:50:57;10.00;99.90
1704;DHT22;849;48.780;9.216;2022-11-23T13:55:55;10.20;99.90
1704;DHT22;849;48.780;9.216;2022-11-23T14:03:51;10.30;99.90
1704;DHT22;849;48.780;9.216;2022-11-23T14:14:46;9.90;99.90
1704;DHT22;849;48.780;9.216;2022-11-23T14:20:38;9.40;99.90
1704;DHT22;849;48.780;9.216;2022-11-23T14:29:03;9.50;99.90
1704;DHT22;849;48.780;9.216;2022-11-23T14:37:31;9.60;99.90
1704;DHT22;849;48.780;9.216;2022-11-23T14:40:11;9.70;99.90
1704;DHT22;849;48.780;9.216;2022-11-23T14:42:42;9.60;99.90
1704;DHT22;849;48.780;9.216;2022-11-23T14:45:13;9.60;99.90
1704;DHT22;849;48.780;9.216;2022-11-23T14:47:39;9.60;99.90
1704;DHT22;849;48.780;9.216;2022-11-23T14:50:15;9.50;99.90
1704;DHT22;849;48.780;9.216;2022-11-23T14:52:45;9.50;99.90
1704;DHT22;849;48.780;9.216;2022-11-23T14:55:17;9.40;99.90
1704;DHT22;849;48.780;9.216;2022-11-23T14:57:45;9.40;99.90
1704;DHT22;849;48.780;9.216;2022-11-23T15:00:37;9.30;99.90
1704;DHT22;849;48.780;9.216;2022-11-23T15:03:15;9.40;99.90
1704;DHT22;849;48.780;9.216;2022-11-23T15:05:45;9.40;99.90
1704;DHT22;849;48.780;9.216;2022-11-23T15:08:24;9.30;99.90
1704;DHT22;849;48.780;9.216;2022-11-23T15:13:29;9.10;99.90
1704;DHT22;849;48.780;9.216;2022-11-23T15:15:56;9.10;99.90
1704;DHT22;849;48.780;9.216;2022-11-23T15:20:58;8.80;99.90
1704;DHT22;849;48.780;9.216;2022-11-23T15:23:32;8.80;99.90
1704;DHT22;849;48.780;9.216;2022-11-23T15:26:03;8.70;99.90
1704;DHT22;849;48.780;9.216;2022-11-23T15:28:31;8.80;99.90
1704;DHT22;849;48.780;9.216;2022-11-23T15:30:58;8.70;99.90
1704;DHT22;849;48.780;9.216;2022-11-23T15:33:24;8.60;99.90
1704;DHT22;849;48.780;9.216;2022-11-23T15:35:51;8.50;99.90
1704;DHT22;849;48.780;9.216;2022-11-23T15:38:18;8.50;99.90
1704;DHT22;849;48.780;9.216;2022-11-23T15:40:47;8.50;99.90
1704;DHT22;849;48.780;9.216;2022-11-23T15:43:15;8.50;99.90
1704;DHT22;849;48.780;9.216;2022-11-23T15:48:14;8.20;99.90
1704;DHT22;849;48.780;9.216;2022-11-23T15:50:50;8.30;99.90
1704;DHT22;849;48.780;9.216;2022-11-23T15:53:16;8.40;99.90
1704;DHT22;849;48.780;9.216;2022-11-23T15:55:42;8.50;99.90
1704;DHT22;849;48.780;9.216;2022-11-23T15:58:09;8.40;99.90
1704;DHT22;849;48.780;9.216;2022-11-23T16:00:39;8.30;99.90
1704;DHT22;849;48.780;9.216;2022-11-23T16:03:27;8.40;99.90
1704;DHT22;849;48.780;9.216;2022-11-23T16:08:39;8.40;99.90
1704;DHT22;849;48.780;9.216;2022-11-23T16:13:45;8.50;99.90
1704;DHT22;849;48.780;9.216;2022-11-23T16:16:21;8.60;99.90
1704;DHT22;849;48.780;9.216;2022-11-23T16:18:48;8.60;99.90
1704;DHT22;849;48.780;9.216;2022-11-23T16:21:18;8.60;99.90
1704;DHT22;849;48.780;9.216;2022-11-23T16:23:51;8.60;99.90
1704;DHT22;849;48.780;9.216;2022-11-23T16:26:19;8.60;99.90
1704;DHT22;849;48.780;9.216;2022-11-23T16:28:53;8.50;99.90
1704;DHT22;849;48.780;9.216;2022-11-23T16:31:39;8.50;99.90
1704;DHT22;849;48.780;9.216;2022-11-23T16:34:12;8.60;99.90
1704;DHT22;849;48.780;9.216;2022-11-23T16:36:39;8.80;99.90
1704;DHT22;849;48.780;9.216;2022-11-23T16:39:05;8.80;99.90
1704;DHT22;849;48.780;9.216;2022-11-23T16:41:31;8.80;99.90
1704;DHT22;849;48.780;9.216;2022-11-23T16:43:56;8.80;99.90
1704;DHT22;849;48.780;9.216;2022-11-23T16:46:22;8.80;99.90
1704;DHT22;849;48.780;9.216;2022-11-23T16:48:48;8.90;99.90
1704;DHT22;849;48.780;9.216;2022-11-23T16:51:13;9.00;99.90
1704;DHT22;849;48.780;9.216;2022-11-23T16:53:44;9.10;99.90
1704;DHT22;849;48.780;9.216;2022-11-23T16:56:18;9.10;99.90
1704;DHT22;849;48.780;9.216;2022-11-23T16:58:44;9.10;99.90
1704;DHT22;849;48.780;9.216;2022-11-23T17:01:17;9.30;99.90
1704;DHT22;849;48.780;9.216;2022-11-23T17:03:44;9.20;99.90
1704;DHT22;849;48.780;9.216;2022-11-23T17:06:14;9.20;99.90
1704;DHT22;849;48.780;9.216;2022-11-23T17:08:42;9.10;99.90
1704;DHT22;849;48.780;9.216;2022-11-23T17:11:16;9.20;99.90
1704;DHT22;849;48.780;9.216;2022-11-23T17:13:44;9.30;99.90
1704;DHT22;849;48.780;9.216;2022-11-23T17:16:20;9.30;99.90
1704;DHT22;849;48.780;9.216;2022-11-23T17:18:46;9.40;99.90
1704;DHT22;849;48.780;9.216;2022-11-23T17:21:12;9.40;99.90
1704;DHT22;849;48.780;9.216;2022-11-23T17:23:38;9.30;99.90
1704;DHT22;849;48.780;9.216;2022-11-23T17:26:24;9.20;99.90
1704;DHT22;849;48.780;9.216;2022-11-23T17:28:52;9.10;99.90
1704;DHT22;849;48.780;9.216;2022-11-23T17:31:18;9.20;99.90
1704;DHT22;849;48.780;9.216;2022-11-23T17:33:44;9.10;99.90
1704;DHT22;849;48.780;9.216;2022-11-23T17:36:09;9.10;99.90
1704;DHT22;849;48.780;9.216;2022-11-23T17:38:36;9.20;99.90
1704;DHT22;849;48.780;9.216;2022-11-23T17:41:03;9.30;99.90
1704;DHT22;849;48.780;9.216;2022-11-23T17:43:29;9.30;99.90
1704;DHT22;849;48.780;9.216;2022-11-23T17:45:55;9.30;99.90
1704;DHT22;849;48.780;9.216;2022-11-23T17:48:21;9.30;99.90
1704;DHT22;849;48.780;9.216;2022-11-23T17:50:47;9.40;99.90
1704;DHT22;849;48.780;9.216;2022-11-23T17:53:13;9.40;99.90
1704;DHT22;849;48.780;9.216;2022-11-23T17:55:39;9.40;99.90
1704;DHT22;849;48.780;9.216;2022-11-23T17:58:05;9.30;99.90
1704;DHT22;849;48.780;9.216;2022-11-23T18:00:31;9.20;99.90
1704;DHT22;849;48.780;9.216;2022-11-23T18:02:57;9.40;99.90
1704;DHT22;849;48.780;9.216;2022-11-23T18:05:23;9.30;99.90
1704;DHT22;849;48.780;9.216;2022-11-23T18:07:49;9.40;99.90
1704;DHT22;849;48.780;9.216;2022-11-23T18:10:15;9.30;99.90
1704;DHT22;849;48.780;9.216;2022-11-23T18:12:41;9.30;99.90
1704;DHT22;849;48.780;9.216;2022-11-23T18:15:09;9.40;99.90
1704;DHT22;849;48.780;9.216;2022-11-23T18:17:35;9.50;99.90
1704;DHT22;849;48.780;9.216;2022-11-23T18:20:01;9.40;99.90
1704;DHT22;849;48.780;9.216;2022-11-23T18:22:28;9.40;99.90
1704;DHT22;849;48.780;9.216;2022-11-23T18:24:54;9.30;99.90
1704;DHT22;849;48.780;9.216;2022-11-23T18:27:20;9.00;99.90
1704;DHT22;849;48.780;9.216;2022-11-23T18:29:45;8.90;99.90
1704;DHT22;849;48.780;9.216;2022-11-23T18:32:11;8.90;99.90
1704;DHT22;849;48.780;9.216;2022-11-23T18:34:37;9.10;99.90
1704;DHT22;849;48.780;9.216;2022-11-23T18:37:03;8.90;99.90
1704;DHT22;849;48.780;9.216;2022-11-23T18:39:28;8.90;99.90
1704;DHT22;849;48.780;9.216;2022-11-23T18:41:54;9.20;99.90
1704;DHT22;849;48.780;9.216;2022-11-23T18:44:20;9.20;99.90
1704;DHT22;849;48.780;9.216;2022-11-23T18:46:46;9.30;99.90
1704;DHT22;849;48.780;9.216;2022-11-23T18:49:12;9.40;99.90
1704;DHT22;849;48.780;9.216;2022-11-23T18:51:37;9.30;99.90
1704;DHT22;849;48.780;9.216;2022-11-23T18:54:03;9.10;99.90
1704;DHT22;849;48.780;9.216;2022-11-23T18:56:29;9.00;99.90
1704;DHT22;849;48.780;9.216;2022-11-23T18:58:55;9.20;99.90
1704;DHT22;849;48.780;9.216;2022-11-23T19:01:21;9.30;99.90
1704;DHT22;849;48.780;9.216;2022-11-23T19:03:49;9.40;99.90